Time;durP1;ratioP1;P1;durP2;ratioP2;P2;SDS_P1;SDS_P2;PMS_P1;PMS_P2;Temp;Humidity;BMP_temperature;BMP_pressure;BME280_temperature;BME280_humidity;BME280_pressure;Samples;Min_cycle;Max_cycle;Signal;HPM_P1;HPM_P2
2023/07/27 00:00:40;;;;;;;1.60;1.50;;;23.90;47.50;;;;;;222225;1258;25265;-44
2023/07/27 00:06:03;;;;;;;1.70;1.40;;;23.90;47.40;;;;;;221883;1262;24261;-45
2023/07/27 00:11:08;;;;;;;2.20;1.50;;;23.90;47.20;;;;;;222283;1256;23929;-46
2023/07/27 00:16:12;;;;;;;1.90;1.30;;;23.90;47.30;;;;;;222087;1269;25449;-42
2023/07/27 00:21:16;;;;;;;1.10;1.00;;;23.80;47.30;;;;;;222318;1269;24256;-44
2023/07/27 00:26:20;;;;;;;2.00;1.50;;;23.80;47.40;;;;;;222296;1263;23453;-47
2023/07/27 00:31:24;;;;;;;2.30;1.30;;;23.80;47.40;;;;;;221795;1265;24232;-45
2023/07/27 00:36:29;;;;;;;1.40;1.30;;;23.80;47.40;;;;;;221989;1267;22537;-45
2023/07/27 00:41:33;;;;;;;1.50;1.30;;;23.80;47.40;;;;;;221873;1256;23655;-44
2023/07/27 00:46:37;;;;;;;1.50;1.40;;;23.80;47.50;;;;;;222098;1265;25385;-48
2023/07/27 00:51:44;;;;;;;1.50;1.40;;;23.70;47.60;;;;;;222094;1267;23143;-46
2023/07/27 00:56:49;;;;;;;1.90;1.60;;;23.70;47.60;;;;;;222340;1256;22763;-47
2023/07/27 01:01:54;;;;;;;1.60;1.30;;;23.70;47.50;;;;;;222113;1269;23927;-45
2023/07/27 01:06:57;;;;;;;1.70;1.60;;;23.70;47.90;;;;;;222084;1265;22524;-49
2023/07/27 01:12:13;;;;;;;1.60;1.50;;;23.60;48.00;;;;;;222059;1263;22633;-44
2023/07/27 01:17:38;;;;;;;2.20;1.30;;;23.60;47.60;;;;;;222304;1247;24230;-45
2023/07/27 01:22:45;;;;;;;1.60;1.50;;;23.60;47.80;;;;;;222412;1269;24632;-50
2023/07/27 01:27:53;;;;;;;3.10;1.60;;;23.60;48.10;;;;;;222070;1268;22521;-48
2023/07/27 01:33:11;;;;;;;2.00;1.30;;;23.60;48.10;;;;;;222224;1266;23137;-45
2023/07/27 01:38:17;;;;;;;2.80;1.50;;;23.50;48.00;;;;;;222251;1263;24185;-44
2023/07/27 01:43:21;;;;;;;2.00;1.60;;;23.50;47.90;;;;;;222272;1263;22515;-44
2023/07/27 01:48:27;;;;;;;3.70;1.70;;;23.50;48.20;;;;;;222148;1269;22730;-44
2023/07/27 01:53:35;;;;;;;2.10;1.50;;;23.50;47.90;;;;;;222227;1266;22547;-44
2023/07/27 01:58:40;;;;;;;1.70;1.60;;;23.50;47.90;;;;;;222270;1269;24371;-46
2023/07/27 02:03:47;;;;;;;1.90;1.70;;;23.40;48.00;;;;;;222082;1258;24040;-46
2023/07/27 02:08:51;;;;;;;1.70;1.60;;;23.40;48.00;;;;;;222051;1263;22560;-44
2023/07/27 02:14:26;;;;;;;2.50;1.30;;;23.40;47.90;;;;;;221771;1257;626084;-45
2023/07/27 02:19:32;;;;;;;1.50;1.40;;;23.40;48.00;;;;;;222401;1268;22511;-44
2023/07/27 02:24:37;;;;;;;1.40;1.30;;;23.40;47.70;;;;;;222487;1263;22561;-46
2023/07/27 02:29:42;;;;;;;1.70;1.50;;;23.40;47.80;;;;;;222404;1263;26660;-43
2023/07/27 02:34:46;;;;;;;2.10;1.70;;;23.40;48.00;;;;;;222584;1246;23886;-45
2023/07/27 02:39:51;;;;;;;1.70;1.60;;;23.40;48.00;;;;;;222542;1266;23970;-44
2023/07/27 02:44:55;;;;;;;2.40;1.50;;;23.40;48.00;;;;;;222509;1259;24181;-44
2023/07/27 02:50:00;;;;;;;2.10;1.40;;;23.40;48.00;;;;;;222750;1266;22523;-40
2023/07/27 02:55:05;;;;;;;4.10;1.50;;;23.30;48.30;;;;;;222378;1263;23827;-45
2023/07/27 03:00:10;;;;;;;1.90;1.50;;;23.30;47.70;;;;;;222799;1254;26472;-46
2023/07/27 03:05:15;;;;;;;2.90;1.60;;;23.30;48.00;;;;;;222891;1256;24157;-44
2023/07/27 03:10:19;;;;;;;2.40;1.40;;;23.30;48.10;;;;;;222775;1263;22715;-46
2023/07/27 03:15:24;;;;;;;1.50;1.40;;;23.20;48.10;;;;;;222769;1256;23915;-45
2023/07/27 03:20:28;;;;;;;2.00;1.50;;;23.20;48.00;;;;;;222376;1269;22534;-45
2023/07/27 03:25:33;;;;;;;1.70;1.50;;;23.30;48.20;;;;;;222441;1266;22602;-43
2023/07/27 03:30:38;;;;;;;1.40;1.30;;;23.30;48.00;;;;;;222429;1266;25252;-46
2023/07/27 03:35:43;;;;;;;2.10;1.40;;;23.30;48.00;;;;;;222004;1257;24336;-46
2023/07/27 03:40:48;;;;;;;1.50;1.40;;;23.20;48.10;;;;;;222057;1266;24183;-46
2023/07/27 03:45:55;;;;;;;1.80;1.70;;;23.20;48.20;;;;;;222008;1269;25394;-45
2023/07/27 03:51:01;;;;;;;2.30;1.70;;;23.20;48.20;;;;;;221999;1256;23016;-47
2023/07/27 03:56:06;;;;;;;2.50;2.30;;;23.20;48.20;;;;;;222096;1269;22524;-44
2023/07/27 04:01:11;;;;;;;2.10;1.90;;;23.20;48.30;;;;;;222054;1266;22630;-44
2023/07/27 04:06:15;;;;;;;2.20;1.70;;;23.20;48.20;;;;;;221900;1263;23856;-45
2023/07/27 04:11:19;;;;;;;2.60;2.10;;;23.20;48.30;;;;;;222144;1263;22652;-45
2023/07/27 04:16:23;;;;;;;2.20;2.00;;;23.20;48.70;;;;;;221981;1266;22675;-48
2023/07/27 04:21:28;;;;;;;4.70;2.00;;;23.20;48.80;;;;;;221897;1246;22512;-44
2023/07/27 04:26:32;;;;;;;3.00;2.20;;;23.20;48.50;;;;;;222045;1266;24272;-46
2023/07/27 04:31:37;;;;;;;2.30;2.20;;;23.20;48.50;;;;;;222164;1269;24749;-44
2023/07/27 04:36:42;;;;;;;2.80;2.60;;;23.20;48.70;;;;;;222103;1266;22789;-47
2023/07/27 04:41:46;;;;;;;2.40;2.30;;;23.10;48.80;;;;;;222225;1263;22513;-47
2023/07/27 04:46:50;;;;;;;3.30;2.50;;;23.20;48.90;;;;;;221954;1262;23416;-45
2023/07/27 04:51:55;;;;;;;2.70;2.40;;;23.20;49.10;;;;;;222099;1266;22537;-45
2023/07/27 04:56:59;;;;;;;2.20;2.10;;;23.20;49.00;;;;;;222043;1263;22508;-45
2023/07/27 05:02:04;;;;;;;2.40;2.20;;;23.20;49.10;;;;;;222341;1266;22501;-44
2023/07/27 05:07:07;;;;;;;2.10;2.00;;;23.20;49.20;;;;;;222647;1263;24229;-46
2023/07/27 05:12:12;;;;;;;2.00;1.90;;;23.20;49.20;;;;;;222102;1265;22558;-45
2023/07/27 05:17:16;;;;;;;2.00;1.90;;;23.20;49.60;;;;;;221966;1269;22561;-43
2023/07/27 05:22:20;;;;;;;1.90;1.80;;;23.20;49.40;;;;;;221994;1263;22577;-44
2023/07/27 05:27:25;;;;;;;2.80;2.00;;;23.30;49.90;;;;;;222056;1263;23830;-44
2023/07/27 05:32:29;;;;;;;1.90;1.80;;;23.30;49.60;;;;;;222077;1263;24203;-44
2023/07/27 05:37:33;;;;;;;2.00;1.90;;;23.20;49.70;;;;;;222123;1263;22592;-45
2023/07/27 05:42:39;;;;;;;2.00;1.90;;;23.30;49.60;;;;;;221996;1260;22598;-47
2023/07/27 05:47:43;;;;;;;1.90;1.80;;;23.20;49.80;;;;;;222309;1266;24310;-47
2023/07/27 05:52:47;;;;;;;1.70;1.60;;;23.20;49.90;;;;;;222091;1266;24053;-44
2023/07/27 05:57:51;;;;;;;1.70;1.60;;;23.30;49.90;;;;;;222089;1249;25593;-46
2023/07/27 06:02:56;;;;;;;1.90;1.80;;;23.20;50.00;;;;;;222012;1265;24080;-46
2023/07/27 06:08:00;;;;;;;1.60;1.50;;;23.30;50.10;;;;;;221888;1254;22541;-44
2023/07/27 06:13:04;;;;;;;3.20;2.00;;;23.30;49.60;;;;;;222094;1268;23135;-45
2023/07/27 06:18:09;;;;;;;1.80;1.70;;;23.30;50.20;;;;;;221996;1266;22623;-47
2023/07/27 06:23:13;;;;;;;1.90;1.80;;;23.30;50.30;;;;;;222022;1248;22583;-47
2023/07/27 06:28:18;;;;;;;1.60;1.50;;;23.30;50.50;;;;;;221934;1266;22993;-45
2023/07/27 06:33:22;;;;;;;2.20;1.80;;;23.30;50.50;;;;;;222489;1263;24210;-45
2023/07/27 06:38:26;;;;;;;1.90;1.80;;;23.30;50.50;;;;;;221886;1269;22649;-44
2023/07/27 06:43:31;;;;;;;2.70;1.50;;;23.30;50.40;;;;;;221803;1262;25187;-42
2023/07/27 06:48:35;;;;;;;3.10;2.60;;;23.30;50.80;;;;;;222117;1268;22508;-44
2023/07/27 06:53:40;;;;;;;2.70;1.40;;;23.50;50.30;;;;;;222612;1269;25324;-46
2023/07/27 06:58:44;;;;;;;2.30;2.10;;;23.60;50.30;;;;;;222119;1263;25585;-47
2023/07/27 07:03:48;;;;;;;5.60;3.00;;;23.50;50.40;;;;;;221700;1267;25451;-45
2023/07/27 07:08:52;;;;;;;2.70;2.40;;;23.60;51.00;;;;;;221727;1263;25316;-46
2023/07/27 07:13:56;;;;;;;5.90;2.80;;;23.60;50.50;;;;;;221994;1264;24393;-46
2023/07/27 07:19:00;;;;;;;4.90;3.10;;;23.70;50.60;;;;;;221775;1261;22642;-44
2023/07/27 07:24:05;;;;;;;4.30;2.90;;;23.70;50.50;;;;;;221836;1254;22501;-46
2023/07/27 07:29:09;;;;;;;4.20;2.90;;;23.80;50.60;;;;;;221876;1263;22524;-47
2023/07/27 07:34:14;;;;;;;3.10;2.60;;;23.80;50.90;;;;;;222054;1263;22655;-46
2023/07/27 07:39:18;;;;;;;3.10;2.40;;;23.80;50.30;;;;;;221819;1253;22524;-46
2023/07/27 07:44:22;;;;;;;3.60;2.50;;;23.80;50.40;;;;;;221957;1266;22510;-45
2023/07/27 07:49:26;;;;;;;4.50;3.30;;;23.90;50.70;;;;;;222134;1256;22507;-44
2023/07/27 07:54:31;;;;;;;4.30;2.90;;;23.80;50.40;;;;;;222114;1262;22511;-44
2023/07/27 07:59:35;;;;;;;3.40;2.60;;;23.80;51.10;;;;;;222100;1262;25306;-46
2023/07/27 08:04:39;;;;;;;3.70;2.40;;;23.90;50.80;;;;;;221866;1258;24342;-45
2023/07/27 08:09:43;;;;;;;4.10;2.80;;;23.80;50.60;;;;;;221978;1262;25293;-44
2023/07/27 08:14:49;;;;;;;3.10;2.60;;;23.80;50.60;;;;;;221981;1263;25271;-46
2023/07/27 08:19:53;;;;;;;3.20;2.50;;;23.80;50.70;;;;;;221908;1264;23878;-47
2023/07/27 08:24:57;;;;;;;2.50;2.30;;;23.90;51.80;;;;;;221812;1269;22525;-45
2023/07/27 08:30:22;;;;;;;3.80;2.90;;;23.90;52.00;;;;;;222082;1268;22512;-44
2023/07/27 08:35:26;;;;;;;2.90;2.40;;;24.00;52.00;;;;;;222351;1269;24040;-45
2023/07/27 08:40:31;;;;;;;2.30;2.10;;;23.90;52.00;;;;;;221838;1263;24184;-43
2023/07/27 08:45:38;;;;;;;3.00;2.00;;;24.00;52.70;;;;;;222074;1261;22517;-45
2023/07/27 08:50:44;;;;;;;4.50;2.50;;;23.90;53.00;;;;;;222006;1269;22537;-44
2023/07/27 08:55:48;;;;;;;1.90;1.80;;;24.00;53.00;;;;;;222444;1266;25510;-45
2023/07/27 09:00:52;;;;;;;2.30;2.10;;;24.00;52.90;;;;;;222179;1269;22622;-45
2023/07/27 09:06:02;;;;;;;2.10;1.90;;;24.00;53.60;;;;;;222102;1266;23434;-46
2023/07/27 09:11:08;;;;;;;2.00;1.80;;;24.00;53.50;;;;;;222190;1263;25675;-45
2023/07/27 09:16:12;;;;;;;3.10;2.00;;;24.10;54.30;;;;;;222168;1267;22761;-47
2023/07/27 09:21:16;;;;;;;2.20;2.10;;;24.10;54.80;;;;;;222014;1267;23909;-48
2023/07/27 09:26:25;;;;;;;2.50;2.30;;;24.00;55.60;;;;;;221781;1266;22511;-46
2023/07/27 09:31:36;;;;;;;2.00;1.80;;;24.10;55.10;;;;;;222022;1269;22592;-47
2023/07/27 09:36:40;;;;;;;2.70;1.90;;;24.10;55.10;;;;;;222098;1263;26117;-46
2023/07/27 09:41:46;;;;;;;3.10;2.00;;;24.10;55.30;;;;;;222044;1269;22636;-46
2023/07/27 09:46:50;;;;;;;2.10;2.00;;;24.20;55.80;;;;;;221985;1262;24194;-46
2023/07/27 09:51:55;;;;;;;3.60;1.80;;;24.20;55.70;;;;;;222447;1263;22508;-49
2023/07/27 09:57:00;;;;;;;2.20;1.70;;;24.20;56.40;;;;;;222204;1264;23857;-48
2023/07/27 10:02:05;;;;;;;2.40;2.10;;;24.20;56.50;;;;;;222009;1269;22636;-50
2023/07/27 10:07:09;;;;;;;2.10;1.90;;;24.20;56.40;;;;;;222092;1266;25439;-46
2023/07/27 10:12:27;;;;;;;2.80;2.40;;;24.20;58.10;;;;;;222182;1263;22763;-48
2023/07/27 10:17:44;;;;;;;2.50;2.30;;;24.30;56.80;;;;;;222037;1254;22722;-46
2023/07/27 10:23:19;;;;;;;1.70;1.60;;;24.30;56.20;;;;;;222138;1252;24311;-47
2023/07/27 10:28:39;;;;;;;2.80;1.70;;;24.40;56.40;;;;;;222283;1266;25510;-42
2023/07/27 10:33:48;;;;;;;2.40;1.90;;;24.50;57.10;;;;;;222248;1263;22625;-46
2023/07/27 10:38:53;;;;;;;2.60;2.10;;;24.50;57.60;;;;;;222042;1263;22528;-44
2023/07/27 10:44:07;;;;;;;4.30;2.00;;;24.40;58.90;;;;;;220747;1268;24379;-45
2023/07/27 10:49:15;;;;;;;3.00;2.20;;;24.50;56.10;;;;;;221021;1270;22548;-50
2023/07/27 10:54:36;;;;;;;4.20;1.70;;;24.50;54.50;;;;;;220837;1272;23897;-46
2023/07/27 10:59:42;;;;;;;3.90;1.90;;;24.50;51.00;;;;;;221126;1269;22635;-46
2023/07/27 11:04:52;;;;;;;1.80;1.70;;;24.40;51.90;;;;;;222254;1269;22908;-49
2023/07/27 11:09:57;;;;;;;2.40;1.60;;;24.40;50.70;;;;;;221889;1263;25329;-49
2023/07/27 11:15:26;;;;;;;5.90;1.90;;;24.50;49.70;;;;;;222160;1266;25376;-50
2023/07/27 11:20:30;;;;;;;3.10;1.50;;;24.30;51.70;;;;;;222066;1256;26171;-51
2023/07/27 11:25:35;;;;;;;2.00;1.90;;;24.40;50.00;;;;;;221986;1264;23012;-50
2023/07/27 11:30:39;;;;;;;2.10;1.60;;;24.40;48.90;;;;;;222059;1267;24275;-55
2023/07/27 11:35:47;;;;;;;2.50;1.90;;;24.50;46.80;;;;;;222037;1266;25268;-51
2023/07/27 11:40:59;;;;;;;1.80;1.60;;;24.50;47.00;;;;;;222024;1263;24267;-52
2023/07/27 11:46:26;;;;;;;2.50;2.20;;;24.60;47.80;;;;;;222152;1263;22761;-48
2023/07/27 11:51:30;;;;;;;3.30;2.30;;;24.70;47.50;;;;;;222229;1259;22642;-49
2023/07/27 11:56:36;;;;;;;4.50;1.70;;;24.70;48.20;;;;;;222065;1263;22623;-47
2023/07/27 12:01:40;;;;;;;3.50;1.70;;;24.70;49.70;;;;;;222236;1263;22511;-46
2023/07/27 12:06:44;;;;;;;1.90;1.70;;;24.50;49.20;;;;;;221750;1263;22590;-50
2023/07/27 12:11:48;;;;;;;6.50;2.10;;;24.70;47.60;;;;;;221960;1263;23886;-52
2023/07/27 12:16:53;;;;;;;3.80;1.60;;;24.60;47.10;;;;;;222173;1258;26132;-52
2023/07/27 12:22:00;;;;;;;4.10;1.70;;;24.50;46.00;;;;;;221900;1266;22544;-48
2023/07/27 12:27:24;;;;;;;2.60;1.70;;;24.40;46.10;;;;;;221826;1263;24186;-48
2023/07/27 12:32:28;;;;;;;2.20;1.50;;;24.50;45.60;;;;;;222227;1256;22594;-51
2023/07/27 12:37:32;;;;;;;5.00;2.00;;;24.50;45.70;;;;;;222160;1267;24212;-48
2023/07/27 12:42:39;;;;;;;3.90;1.50;;;24.40;46.00;;;;;;221972;1253;23247;-50
2023/07/27 12:47:43;;;;;;;4.10;1.80;;;24.30;46.00;;;;;;221823;1266;22763;-55
2023/07/27 12:52:49;;;;;;;2.20;1.90;;;24.50;45.70;;;;;;222341;1266;22526;-60
2023/07/27 12:57:53;;;;;;;2.20;2.00;;;24.50;46.30;;;;;;222215;1264;22814;-56
2023/07/27 13:02:57;;;;;;;2.20;1.80;;;24.60;45.50;;;;;;221933;1270;24281;-47
2023/07/27 13:08:01;;;;;;;2.90;1.90;;;24.60;46.10;;;;;;222037;1256;22537;-46
2023/07/27 13:13:06;;;;;;;6.90;2.20;;;24.70;46.30;;;;;;221870;1269;24261;-47
2023/07/27 13:18:10;;;;;;;3.80;2.50;;;24.60;46.20;;;;;;221775;1257;24177;-52
2023/07/27 13:23:14;;;;;;;4.80;2.10;;;24.60;49.90;;;;;;221790;1269;23917;-46
2023/07/27 13:28:18;;;;;;;2.30;2.10;;;24.70;49.80;;;;;;221876;1263;22605;-49
2023/07/27 13:33:22;;;;;;;5.20;2.40;;;24.70;49.70;;;;;;222087;1263;23044;-50
2023/07/27 13:38:26;;;;;;;2.90;2.20;;;24.60;48.10;;;;;;222053;1269;22637;-53
2023/07/27 13:43:32;;;;;;;2.30;2.10;;;24.70;47.30;;;;;;221722;1267;22536;-51
2023/07/27 13:48:36;;;;;;;2.50;2.10;;;24.60;47.60;;;;;;221956;1262;27163;-47
2023/07/27 13:53:40;;;;;;;3.00;2.40;;;24.70;47.10;;;;;;221805;1266;22518;-47
2023/07/27 13:58:45;;;;;;;4.60;2.40;;;24.70;46.50;;;;;;221993;1264;25452;-50
2023/07/27 14:03:49;;;;;;;4.60;2.00;;;24.70;46.20;;;;;;221911;1264;25333;-49
2023/07/27 14:08:55;;;;;;;3.20;2.40;;;24.80;46.30;;;;;;221908;1263;22971;-46
2023/07/27 14:13:59;;;;;;;3.00;2.40;;;24.50;47.20;;;;;;221689;1264;453708;-46
2023/07/27 14:19:03;;;;;;;3.60;2.40;;;24.30;47.00;;;;;;221704;1263;23558;-47
2023/07/27 14:24:07;;;;;;;8.10;2.40;;;24.20;46.80;;;;;;221920;1266;22641;-47
2023/07/27 14:29:11;;;;;;;4.60;2.40;;;24.50;47.20;;;;;;222307;1267;22774;-55
2023/07/27 14:34:17;;;;;;;9.50;2.40;;;24.60;47.00;;;;;;221895;1264;22470;-46
2023/07/27 14:39:21;;;;;;;9.20;2.60;;;24.70;47.50;;;;;;221876;1261;22650;-45
2023/07/27 14:44:25;;;;;;;3.00;2.50;;;24.70;46.30;;;;;;221706;1257;22519;-44
2023/07/27 14:49:29;;;;;;;4.50;2.00;;;24.60;45.60;;;;;;221945;1264;22640;-50
2023/07/27 14:54:43;;;;;;;3.40;2.50;;;24.50;45.30;;;;;;221929;1262;25370;-47
2023/07/27 14:59:47;;;;;;;4.90;2.40;;;24.60;45.10;;;;;;222138;1263;22616;-44
2023/07/27 15:04:55;;;;;;;9.60;2.50;;;24.70;45.70;;;;;;221895;1264;22522;-45
2023/07/27 15:09:59;;;;;;;4.10;2.90;;;24.70;46.40;;;;;;222331;1248;26238;-42
2023/07/27 15:15:03;;;;;;;6.30;2.20;;;24.70;45.90;;;;;;221784;1254;22560;-42
2023/07/27 15:20:08;;;;;;;4.70;2.30;;;24.70;45.60;;;;;;223273;1267;22526;-41
2023/07/27 15:25:12;;;;;;;2.30;2.10;;;24.70;44.80;;;;;;222465;1255;25532;-40
2023/07/27 15:30:16;;;;;;;3.80;2.20;;;24.70;44.70;;;;;;222379;1260;22644;-41
2023/07/27 15:35:20;;;;;;;5.10;2.20;;;24.60;44.50;;;;;;221978;1254;22642;-42
2023/07/27 15:40:25;;;;;;;2.50;2.00;;;24.60;44.60;;;;;;221982;1267;24066;-42
2023/07/27 15:45:31;;;;;;;5.20;2.40;;;24.60;44.40;;;;;;222132;1254;24371;-42
2023/07/27 15:50:35;;;;;;;3.50;2.30;;;24.60;44.30;;;;;;222156;1258;24059;-40
2023/07/27 15:55:41;;;;;;;2.40;2.20;;;24.40;44.40;;;;;;221941;1266;24193;-41
2023/07/27 16:00:46;;;;;;;3.20;2.30;;;24.30;44.10;;;;;;222109;1258;22531;-40
2023/07/27 16:05:51;;;;;;;2.90;2.40;;;24.30;43.90;;;;;;222139;1269;25268;-43
2023/07/27 16:10:56;;;;;;;2.60;2.10;;;24.30;43.80;;;;;;222130;1267;26513;-41
2023/07/27 16:16:00;;;;;;;2.80;2.20;;;24.30;43.70;;;;;;222271;1264;22520;-40
2023/07/27 16:21:04;;;;;;;4.30;2.00;;;24.40;44.10;;;;;;221875;1269;22568;-40
2023/07/27 16:26:09;;;;;;;3.70;2.20;;;24.30;44.20;;;;;;222128;1269;24276;-41
2023/07/27 16:31:13;;;;;;;2.50;2.20;;;24.20;44.00;;;;;;222273;1269;25374;-40
2023/07/27 16:36:18;;;;;;;3.90;2.00;;;24.20;43.80;;;;;;222183;1254;26618;-40
2023/07/27 16:41:22;;;;;;;3.50;2.50;;;24.20;43.90;;;;;;222299;1255;25397;-41
2023/07/27 16:46:26;;;;;;;3.50;2.10;;;24.20;43.90;;;;;;222292;1269;22535;-41
2023/07/27 16:51:35;;;;;;;5.50;2.80;;;24.30;44.60;;;;;;222131;1258;25206;-41
2023/07/27 16:56:39;;;;;;;3.70;3.10;;;24.50;44.60;;;;;;222079;1254;25224;-40
2023/07/27 17:01:44;;;;;;;4.00;2.60;;;24.50;46.70;;;;;;222004;1260;22508;-40
2023/07/27 17:06:48;;;;;;;3.50;2.80;;;24.50;45.70;;;;;;222316;1267;22515;-41
2023/07/27 17:11:53;;;;;;;2.10;2.00;;;24.40;45.30;;;;;;222019;1260;25347;-41
2023/07/27 17:16:58;;;;;;;4.80;2.20;;;24.40;45.30;;;;;;222189;1269;25316;-41
2023/07/27 17:22:03;;;;;;;3.90;2.30;;;24.30;45.20;;;;;;221982;1261;22522;-40
2023/07/27 17:27:07;;;;;;;3.30;2.20;;;24.30;45.10;;;;;;222337;1264;22657;-43
2023/07/27 17:32:13;;;;;;;4.40;2.50;;;24.30;44.70;;;;;;222318;1264;24361;-40
2023/07/27 17:37:17;;;;;;;2.90;2.10;;;24.30;44.60;;;;;;222045;1255;25214;-40
2023/07/27 17:42:22;;;;;;;2.40;2.20;;;24.20;44.30;;;;;;222162;1254;22514;-41
2023/07/27 17:47:26;;;;;;;2.10;1.90;;;24.30;44.30;;;;;;222209;1269;25478;-41
2023/07/27 17:52:32;;;;;;;3.70;2.30;;;24.30;44.40;;;;;;222312;1254;22514;-40
2023/07/27 17:57:37;;;;;;;2.40;2.30;;;24.30;44.10;;;;;;222164;1269;22530;-40
2023/07/27 18:02:41;;;;;;;2.40;2.20;;;24.30;44.60;;;;;;222361;1257;22589;-39
2023/07/27 18:07:46;;;;;;;2.30;2.10;;;24.30;44.40;;;;;;222241;1269;25278;-40
2023/07/27 18:12:52;;;;;;;3.00;2.60;;;24.30;44.30;;;;;;222276;1262;22511;-41
2023/07/27 18:17:56;;;;;;;3.00;2.40;;;24.30;45.10;;;;;;222245;1254;22544;-41
2023/07/27 18:23:01;;;;;;;3.60;2.50;;;24.30;45.00;;;;;;222193;1266;24999;-40
2023/07/27 18:28:06;;;;;;;3.80;2.70;;;24.30;44.70;;;;;;222264;1256;24190;-41
2023/07/27 18:33:11;;;;;;;2.70;2.40;;;24.20;44.70;;;;;;222168;1254;22464;-40
2023/07/27 18:38:16;;;;;;;2.50;2.30;;;24.20;45.10;;;;;;221996;1266;25287;-40
2023/07/27 18:43:20;;;;;;;2.60;2.20;;;24.20;44.90;;;;;;222103;1258;25402;-41
2023/07/27 18:48:25;;;;;;;2.40;2.20;;;24.20;45.00;;;;;;222242;1254;22543;-41
2023/07/27 18:53:30;;;;;;;3.60;2.50;;;24.10;45.20;;;;;;221971;1259;22796;-41
2023/07/27 18:58:34;;;;;;;2.60;2.40;;;24.10;45.00;;;;;;222105;1266;22627;-40
2023/07/27 19:03:42;;;;;;;2.80;2.60;;;24.10;45.10;;;;;;222032;1254;22658;-41
2023/07/27 19:08:49;;;;;;;3.90;2.60;;;24.10;45.10;;;;;;222157;1263;24298;-39
2023/07/27 19:13:53;;;;;;;2.80;2.40;;;24.10;45.00;;;;;;222255;1264;25376;-41
2023/07/27 19:18:58;;;;;;;3.40;2.70;;;24.10;45.20;;;;;;222189;1268;25393;-40
2023/07/27 19:24:06;;;;;;;2.70;2.10;;;24.10;45.40;;;;;;222147;1256;22515;-40
2023/07/27 19:29:11;;;;;;;5.50;2.60;;;23.90;45.60;;;;;;222251;1255;24196;-41
2023/07/27 19:34:16;;;;;;;3.70;2.90;;;23.90;46.10;;;;;;222387;1250;23961;-40
2023/07/27 19:39:21;;;;;;;3.60;2.80;;;23.90;46.80;;;;;;222297;1269;22532;-39
2023/07/27 19:44:28;;;;;;;2.70;2.40;;;23.90;47.50;;;;;;220967;1271;25353;-40
2023/07/27 19:49:33;;;;;;;2.50;2.30;;;23.90;47.70;;;;;;220804;1262;25690;-41
2023/07/27 19:54:38;;;;;;;2.60;2.40;;;24.00;48.00;;;;;;220927;1264;22530;-40
2023/07/27 19:59:44;;;;;;;2.70;2.40;;;23.90;49.30;;;;;;221241;1264;25323;-41
2023/07/27 20:04:50;;;;;;;4.80;2.60;;;24.00;49.40;;;;;;221823;1268;22547;-39
2023/07/27 20:09:55;;;;;;;2.60;2.30;;;24.10;50.10;;;;;;221820;1264;22525;-41
2023/07/27 20:15:00;;;;;;;3.50;2.60;;;24.00;50.60;;;;;;221863;1271;25403;-40
2023/07/27 20:20:05;;;;;;;2.70;2.40;;;24.00;50.70;;;;;;221934;1271;22532;-39
2023/07/27 20:25:11;;;;;;;3.10;2.40;;;24.10;50.90;;;;;;221771;1259;24199;-39
2023/07/27 20:30:18;;;;;;;3.80;2.70;;;24.10;50.90;;;;;;221864;1256;22619;-41
2023/07/27 20:35:24;;;;;;;2.50;2.30;;;24.00;52.20;;;;;;221614;1259;22598;-39
2023/07/27 20:40:29;;;;;;;2.90;2.60;;;23.90;52.80;;;;;;221575;1256;22571;-40
2023/07/27 20:45:34;;;;;;;3.20;2.90;;;23.90;53.30;;;;;;221784;1256;23019;-39
2023/07/27 20:50:39;;;;;;;3.50;2.50;;;23.90;53.50;;;;;;221836;1259;22517;-40
2023/07/27 20:55:43;;;;;;;2.70;2.50;;;23.90;53.80;;;;;;221764;1270;22592;-40
2023/07/27 21:00:48;;;;;;;2.90;2.70;;;23.90;53.50;;;;;;221816;1256;22690;-40
2023/07/27 21:05:52;;;;;;;3.00;2.10;;;23.90;53.90;;;;;;222046;1265;22506;-41
2023/07/27 21:10:56;;;;;;;2.30;2.10;;;23.90;54.20;;;;;;222022;1256;22514;-40
2023/07/27 21:16:06;;;;;;;3.10;2.70;;;23.90;54.00;;;;;;221885;1268;23903;-41
2023/07/27 21:21:19;;;;;;;4.80;2.80;;;23.90;54.00;;;;;;222172;1265;25472;-41
2023/07/27 21:26:23;;;;;;;3.20;2.60;;;23.90;54.20;;;;;;222220;1263;22524;-40
2023/07/27 21:31:29;;;;;;;2.50;2.30;;;23.80;55.00;;;;;;221880;1269;22530;-41
2023/07/27 21:36:33;;;;;;;4.20;2.60;;;23.60;55.20;;;;;;222098;1266;24366;-41
2023/07/27 21:41:37;;;;;;;3.10;2.90;;;23.60;55.00;;;;;;221996;1259;22528;-39
2023/07/27 21:46:42;;;;;;;3.20;2.90;;;23.40;55.40;;;;;;221954;1254;23909;-40
2023/07/27 21:51:46;;;;;;;3.00;2.80;;;23.50;55.30;;;;;;222220;1256;22515;-40
2023/07/27 21:56:50;;;;;;;3.00;2.70;;;23.40;55.60;;;;;;222005;1256;22501;-40
2023/07/27 22:01:54;;;;;;;4.50;2.50;;;23.10;56.20;;;;;;221880;1263;22621;-39
2023/07/27 22:06:58;;;;;;;4.10;2.70;;;23.20;56.10;;;;;;222218;1266;22511;-44
2023/07/27 22:12:03;;;;;;;9.00;2.70;;;23.20;55.40;;;;;;221972;1259;22508;-43
2023/07/27 22:17:07;;;;;;;9.80;2.70;;;23.50;55.50;;;;;;222165;1268;22644;-43
2023/07/27 22:22:11;;;;;;;26.00;3.50;;;23.80;54.70;;;;;;221893;1263;22508;-42
2023/07/27 22:27:15;;;;;;;18.30;3.40;;;24.00;55.10;;;;;;222310;1263;22508;-41
2023/07/27 22:32:19;;;;;;;17.00;3.00;;;24.00;55.30;;;;;;222081;1259;22530;-43
2023/07/27 22:37:24;;;;;;;6.50;2.60;;;24.10;55.60;;;;;;221967;1247;22624;-44
2023/07/27 22:42:28;;;;;;;8.80;2.30;;;24.00;55.10;;;;;;222065;1269;25589;-45
2023/07/27 22:47:32;;;;;;;4.70;2.70;;;24.00;55.20;;;;;;221967;1269;24183;-43
2023/07/27 22:52:36;;;;;;;4.10;2.90;;;24.00;55.20;;;;;;222288;1263;25207;-45
2023/07/27 22:57:43;;;;;;;3.60;2.70;;;24.00;55.20;;;;;;221749;1254;22577;-44
2023/07/27 23:02:47;;;;;;;2.80;2.40;;;24.00;55.20;;;;;;221802;1263;22508;-44
2023/07/27 23:07:52;;;;;;;3.10;2.60;;;24.10;55.20;;;;;;221821;1266;24334;-45
2023/07/27 23:12:56;;;;;;;4.50;2.70;;;24.10;55.00;;;;;;221970;1263;22524;-43
2023/07/27 23:18:00;;;;;;;3.10;2.20;;;24.10;55.20;;;;;;222233;1263;22516;-47
2023/07/27 23:23:05;;;;;;;3.10;2.70;;;24.10;55.20;;;;;;222014;1265;22614;-45
2023/07/27 23:28:09;;;;;;;2.90;2.20;;;24.10;55.20;;;;;;222030;1269;25265;-43
2023/07/27 23:33:13;;;;;;;3.20;2.40;;;24.10;55.40;;;;;;222136;1269;26678;-43
2023/07/27 23:38:17;;;;;;;4.60;2.10;;;24.10;55.60;;;;;;221901;1266;25337;-43
2023/07/27 23:43:21;;;;;;;2.40;2.20;;;24.10;55.30;;;;;;222399;1254;22658;-43
2023/07/27 23:48:25;;;;;;;5.90;2.90;;;24.10;55.30;;;;;;221915;1256;24382;-46
2023/07/27 23:53:29;;;;;;;4.10;2.20;;;24.10;54.90;;;;;;222111;1262;23901;-43
2023/07/27 23:58:33;;;;;;;3.50;2.00;;;24.10;55.00;;;;;;221778;1269;24338;-44
